Time;durP1;ratioP1;P1;durP2;ratioP2;P2;SDS_P1;SDS_P2;PMS_P1;PMS_P2;Temp;Humidity;BMP_temperature;BMP_pressure;BME280_temperature;BME280_humidity;BME280_pressure;Samples;Min_cycle;Max_cycle;Signal;HPM_P1;HPM_P2
2024/03/22 00:01:09;;;;;;;79.00;27.77;;;11.40;99.90;;;;;;10430116;28;20746;-50
2024/03/22 00:06:12;;;;;;;96.95;41.97;;;11.80;99.90;;;;;;10438328;28;20057;-51
2024/03/22 00:11:14;;;;;;;101.47;33.78;;;11.10;99.90;;;;;;10437079;28;20135;-48
2024/03/22 00:16:16;;;;;;;66.20;22.55;;;10.80;99.90;;;;;;10432164;28;20052;-48
2024/03/22 00:21:19;;;;;;;84.90;26.88;;;11.40;99.90;;;;;;10429259;28;20564;-48
2024/03/22 00:26:21;;;;;;;90.05;26.30;;;10.80;99.90;;;;;;10433113;28;20063;-51
2024/03/22 00:31:23;;;;;;;68.75;22.45;;;11.10;99.90;;;;;;10440394;28;20057;-51
2024/03/22 00:36:27;;;;;;;83.75;27.83;;;10.80;99.90;;;;;;10433510;28;20054;-50
2024/03/22 00:41:29;;;;;;;61.35;22.77;;;10.60;99.90;;;;;;10434079;28;20712;-48
2024/03/22 00:46:31;;;;;;;44.83;19.10;;;11.20;99.90;;;;;;10431715;28;20076;-48
2024/03/22 00:51:34;;;;;;;66.10;25.87;;;11.80;99.90;;;;;;10426516;28;20053;-48
2024/03/22 00:56:36;;;;;;;56.08;18.17;;;10.60;99.90;;;;;;10427721;28;20126;-50
2024/03/22 01:01:38;;;;;;;38.55;12.65;;;10.60;99.90;;;;;;10429866;28;20503;-49
2024/03/22 01:06:42;;;;;;;25.70;9.77;;;11.00;99.90;;;;;;10428973;28;20193;-52
2024/03/22 01:11:44;;;;;;;36.53;12.82;;;10.90;99.90;;;;;;10429769;28;20253;-48
2024/03/22 01:16:46;;;;;;;30.45;13.60;;;10.60;99.90;;;;;;10427880;28;20060;-50
2024/03/22 01:21:49;;;;;;;36.58;14.60;;;10.60;99.90;;;;;;10431713;28;20704;-49
2024/03/22 01:26:51;;;;;;;26.90;12.98;;;10.90;99.90;;;;;;10423700;28;20061;-49
2024/03/22 01:31:53;;;;;;;35.13;12.95;;;11.20;99.90;;;;;;10432693;28;20508;-48
2024/03/22 01:36:56;;;;;;;24.88;10.65;;;11.40;99.90;;;;;;10424476;28;20052;-48
2024/03/22 01:41:58;;;;;;;26.33;10.10;;;10.80;99.90;;;;;;10425923;28;20179;-49
2024/03/22 01:47:01;;;;;;;28.38;10.40;;;11.00;99.90;;;;;;10431769;28;20073;-48
2024/03/22 01:52:04;;;;;;;21.38;8.25;;;11.60;99.90;;;;;;10431355;28;20179;-50
2024/03/22 01:57:07;;;;;;;39.35;9.57;;;10.80;99.90;;;;;;10426164;28;20048;-50
2024/03/22 02:02:11;;;;;;;37.60;12.98;;;10.70;99.90;;;;;;10429721;28;20041;-48
2024/03/22 02:07:14;;;;;;;31.45;8.77;;;10.60;99.90;;;;;;10424663;28;20052;-49
2024/03/22 02:12:17;;;;;;;21.20;8.80;;;10.60;99.90;;;;;;10429540;28;20055;-48
2024/03/22 02:17:19;;;;;;;38.50;9.80;;;10.60;99.90;;;;;;10433315;28;20084;-47
2024/03/22 02:22:23;;;;;;;24.58;8.18;;;10.90;99.90;;;;;;10432540;28;20738;-48
2024/03/22 02:27:26;;;;;;;23.23;7.82;;;11.10;99.90;;;;;;10435555;28;20076;-50
2024/03/22 02:32:28;;;;;;;22.92;9.20;;;10.70;99.90;;;;;;10437043;28;20048;-49
2024/03/22 02:37:31;;;;;;;32.40;9.90;;;10.70;99.90;;;;;;10435451;28;20057;-49
2024/03/22 02:42:35;;;;;;;30.35;9.77;;;10.70;99.90;;;;;;10432957;28;20060;-50
2024/03/22 02:47:37;;;;;;;31.20;8.55;;;10.60;99.90;;;;;;10439630;28;20051;-50
2024/03/22 02:52:39;;;;;;;39.13;8.13;;;10.50;99.90;;;;;;10436597;28;20102;-49
2024/03/22 02:57:42;;;;;;;25.02;7.03;;;10.70;99.90;;;;;;10438212;28;20117;-48
2024/03/22 03:02:44;;;;;;;34.50;8.13;;;11.60;99.90;;;;;;10434880;28;20040;-51
2024/03/22 03:07:47;;;;;;;23.37;5.27;;;11.20;99.90;;;;;;10437173;28;20049;-47
2024/03/22 03:12:50;;;;;;;35.25;6.05;;;11.10;99.90;;;;;;10439794;28;20048;-50
2024/03/22 03:17:52;;;;;;;18.50;4.45;;;10.90;99.90;;;;;;10435429;28;20057;-48
2024/03/22 03:22:55;;;;;;;26.10;7.10;;;11.00;99.90;;;;;;10432496;28;20079;-48
2024/03/22 03:27:58;;;;;;;30.50;8.55;;;11.00;99.90;;;;;;10434330;28;20858;-49
2024/03/22 03:33:00;;;;;;;46.50;10.55;;;10.70;99.90;;;;;;10433047;28;20075;-47
2024/03/22 03:38:02;;;;;;;38.28;8.38;;;10.50;99.90;;;;;;10434012;28;20167;-47
2024/03/22 03:43:06;;;;;;;36.05;10.18;;;10.70;99.90;;;;;;10437118;28;20053;-50
2024/03/22 03:48:08;;;;;;;27.17;9.43;;;10.80;99.90;;;;;;10429899;28;20044;-52
2024/03/22 03:53:10;;;;;;;23.60;5.65;;;10.80;99.90;;;;;;10424829;28;20068;-52
2024/03/22 03:58:13;;;;;;;47.40;11.67;;;10.40;99.90;;;;;;10426504;28;20087;-49
2024/03/22 04:03:15;;;;;;;33.08;9.38;;;10.60;99.90;;;;;;10435320;28;20069;-51
2024/03/22 04:08:17;;;;;;;41.08;12.98;;;10.50;99.90;;;;;;10431324;28;20874;-48
2024/03/22 04:13:20;;;;;;;28.90;7.85;;;10.60;99.90;;;;;;10429385;28;20053;-51
2024/03/22 04:18:22;;;;;;;46.83;12.63;;;10.90;99.90;;;;;;10431199;28;20103;-48
2024/03/22 04:23:25;;;;;;;45.97;15.80;;;10.40;99.90;;;;;;10426156;28;20048;-48
2024/03/22 04:28:29;;;;;;;37.08;12.65;;;10.40;99.90;;;;;;10430654;28;20115;-48
2024/03/22 04:33:32;;;;;;;52.92;15.48;;;10.20;99.90;;;;;;10427052;28;20063;-51
2024/03/22 04:38:34;;;;;;;25.67;8.35;;;10.20;99.90;;;;;;10427617;28;20235;-51
2024/03/22 04:43:37;;;;;;;50.38;16.67;;;10.70;99.90;;;;;;10428781;28;20159;-48
2024/03/22 04:48:39;;;;;;;37.97;10.80;;;10.50;99.90;;;;;;10426067;28;20079;-49
2024/03/22 04:53:41;;;;;;;46.92;12.23;;;10.30;99.90;;;;;;10428624;28;20654;-49
2024/03/22 04:58:45;;;;;;;39.65;11.65;;;10.60;99.90;;;;;;10432188;28;20056;-48
2024/03/22 05:03:48;;;;;;;28.10;7.80;;;10.40;99.90;;;;;;10429446;28;20045;-48
2024/03/22 05:08:49;;;;;;;;;;;10.60;99.90;;;;;;10432248;28;20080;-50
2024/03/22 05:13:53;;;;;;;36.13;10.05;;;10.60;99.90;;;;;;10430595;28;19991;-50
2024/03/22 05:18:55;;;;;;;40.47;12.95;;;10.40;99.90;;;;;;10427166;28;20453;-48
2024/03/22 05:23:57;;;;;;;44.78;11.18;;;10.40;99.90;;;;;;10428405;28;20528;-48
2024/03/22 05:29:00;;;;;;;58.25;15.10;;;10.50;99.90;;;;;;10431054;28;20075;-48
2024/03/22 05:34:02;;;;;;;46.40;12.75;;;10.10;99.90;;;;;;10432984;28;20131;-50
2024/03/22 05:39:04;;;;;;;40.92;11.45;;;10.20;99.90;;;;;;10426300;28;20056;-49
2024/03/22 05:44:08;;;;;;;20.07;6.73;;;10.40;99.90;;;;;;10428537;28;20041;-50
2024/03/22 05:49:10;;;;;;;42.08;11.15;;;10.60;99.90;;;;;;10432156;28;20040;-51
2024/03/22 05:54:12;;;;;;;30.38;9.73;;;10.40;99.90;;;;;;10435920;28;20184;-52
2024/03/22 05:59:15;;;;;;;38.58;8.50;;;10.40;99.90;;;;;;10432134;28;20076;-48
2024/03/22 06:04:18;;;;;;;41.15;10.68;;;10.50;99.90;;;;;;10437234;28;20187;-51
2024/03/22 06:09:23;;;;;;;40.53;11.37;;;10.70;99.90;;;;;;10434128;28;20120;-47
2024/03/22 06:14:27;;;;;;;34.08;7.18;;;10.40;99.90;;;;;;10433285;28;20088;-51
2024/03/22 06:19:29;;;;;;;28.85;7.93;;;10.40;99.90;;;;;;10435681;28;20404;-52
2024/03/22 06:24:31;;;;;;;26.45;6.10;;;10.60;99.90;;;;;;10433023;28;20049;-51
2024/03/22 06:29:34;;;;;;;24.87;7.30;;;10.50;99.90;;;;;;10432528;28;20041;-52
2024/03/22 06:34:36;;;;;;;34.33;7.57;;;10.40;99.90;;;;;;10429162;28;20060;-51
2024/03/22 06:39:38;;;;;;;38.77;8.77;;;10.40;99.90;;;;;;10432541;28;20061;-50
2024/03/22 06:44:42;;;;;;;48.77;9.57;;;10.50;99.90;;;;;;10422951;28;20049;-48
2024/03/22 06:49:44;;;;;;;30.10;6.90;;;10.70;99.90;;;;;;10426968;28;20091;-49
2024/03/22 06:54:46;;;;;;;30.10;7.05;;;10.60;99.90;;;;;;10424937;28;20044;-50
2024/03/22 06:59:49;;;;;;;37.97;10.50;;;10.80;99.90;;;;;;10418610;28;20040;-49
2024/03/22 07:04:52;;;;;;;29.55;6.28;;;10.60;99.90;;;;;;10424319;28;20053;-48
2024/03/22 07:09:54;;;;;;;37.13;6.70;;;10.70;99.90;;;;;;10430040;28;21289;-48
2024/03/22 07:14:57;;;;;;;33.35;6.55;;;10.80;99.90;;;;;;10430815;28;20575;-49
2024/03/22 07:20:00;;;;;;;23.05;6.85;;;10.60;99.90;;;;;;10427942;28;20045;-52
2024/03/22 07:25:02;;;;;;;17.58;4.68;;;10.80;99.90;;;;;;10431440;28;20052;-51
2024/03/22 07:30:06;;;;;;;32.28;5.57;;;10.70;99.90;;;;;;10425154;28;20159;-50
2024/03/22 07:35:08;;;;;;;24.33;6.97;;;10.60;99.90;;;;;;10429669;28;20049;-48
2024/03/22 07:40:11;;;;;;;32.22;7.15;;;10.50;99.90;;;;;;10424125;28;20757;-50
2024/03/22 07:45:14;;;;;;;46.20;7.30;;;10.70;99.90;;;;;;10421935;28;20176;-49
2024/03/22 07:50:17;;;;;;;45.15;11.05;;;10.80;99.90;;;;;;10430033;28;20053;-48
2024/03/22 07:55:19;;;;;;;28.80;7.67;;;10.80;99.90;;;;;;10434093;28;20059;-49
2024/03/22 08:00:24;;;;;;;31.02;7.07;;;10.90;99.90;;;;;;10428937;28;20063;-48
2024/03/22 08:05:26;;;;;;;31.38;5.95;;;10.70;99.90;;;;;;10427343;28;23085;-56
2024/03/22 08:10:28;;;;;;;15.95;6.10;;;11.50;99.90;;;;;;10423054;28;20053;-50
2024/03/22 08:15:32;;;;;;;36.42;7.13;;;11.50;99.90;;;;;;10428254;28;20836;-51
2024/03/22 08:20:34;;;;;;;40.20;7.75;;;11.10;99.90;;;;;;10420310;28;20095;-48
2024/03/22 08:25:37;;;;;;;25.42;3.95;;;11.40;99.90;;;;;;10426079;28;20045;-49
2024/03/22 08:30:40;;;;;;;34.77;8.83;;;11.60;99.90;;;;;;10423654;28;20207;-51
2024/03/22 08:35:42;;;;;;;24.38;7.35;;;11.10;99.90;;;;;;10420172;28;20475;-50
2024/03/22 08:40:44;;;;;;;25.87;6.87;;;11.20;99.90;;;;;;10421708;28;20847;-47
2024/03/22 08:45:48;;;;;;;25.20;7.40;;;11.10;99.90;;;;;;10418978;28;20447;-49
2024/03/22 08:50:50;;;;;;;46.03;10.05;;;11.30;99.90;;;;;;10421826;28;20493;-51
2024/03/22 08:55:52;;;;;;;29.00;7.97;;;11.40;99.90;;;;;;10422701;28;20086;-48
2024/03/22 09:00:55;;;;;;;29.23;7.63;;;11.00;99.90;;;;;;10423399;28;20049;-50
2024/03/22 09:05:57;;;;;;;27.95;8.48;;;11.20;99.90;;;;;;10422007;28;20076;-49
2024/03/22 09:10:59;;;;;;;25.50;7.07;;;11.00;99.90;;;;;;10420526;28;20061;-49
2024/03/22 09:16:03;;;;;;;37.30;9.20;;;11.00;99.90;;;;;;10421701;28;20752;-52
2024/03/22 09:21:06;;;;;;;21.55;7.40;;;10.80;99.90;;;;;;10421975;28;20048;-49
2024/03/22 09:26:08;;;;;;;33.78;9.10;;;11.00;99.90;;;;;;10421838;28;20087;-52
2024/03/22 09:31:11;;;;;;;32.97;7.23;;;11.20;99.90;;;;;;10424173;28;20102;-52
2024/03/22 09:36:13;;;;;;;32.92;9.32;;;11.50;99.90;;;;;;10427734;28;20052;-49
2024/03/22 09:41:16;;;;;;;25.08;8.05;;;11.00;99.90;;;;;;10421726;28;20164;-49
2024/03/22 09:46:21;;;;;;;25.55;8.98;;;11.10;99.90;;;;;;10420113;28;20421;-48
2024/03/22 09:51:23;;;;;;;19.00;6.90;;;10.80;99.90;;;;;;10431984;28;20067;-52
2024/03/22 09:56:26;;;;;;;35.43;13.50;;;11.20;99.90;;;;;;10419964;28;20045;-49
2024/03/22 10:01:31;;;;;;;42.20;14.07;;;10.40;99.90;;;;;;10422016;28;20086;-48
2024/03/22 10:06:33;;;;;;;37.13;12.30;;;10.50;99.90;;;;;;10425105;28;20131;-48
2024/03/22 10:11:36;;;;;;;40.83;13.17;;;10.60;99.90;;;;;;10420587;28;20079;-52
2024/03/22 10:16:40;;;;;;;34.83;14.75;;;10.50;99.90;;;;;;10424725;28;20044;-49
2024/03/22 10:21:42;;;;;;;45.65;15.25;;;10.40;99.90;;;;;;10424861;28;20052;-50
2024/03/22 10:26:45;;;;;;;39.17;14.03;;;10.80;99.90;;;;;;10419743;28;20063;-50
2024/03/22 10:31:49;;;;;;;29.02;12.27;;;10.70;99.90;;;;;;10420678;28;20049;-49
2024/03/22 10:36:51;;;;;;;37.00;15.15;;;10.50;99.90;;;;;;10432492;28;20872;-50
2024/03/22 10:41:54;;;;;;;41.43;14.73;;;10.30;99.90;;;;;;10424239;28;20617;-48
2024/03/22 10:47:01;;;;;;;;;;;10.10;99.90;;;;;;10433615;28;20106;-49
2024/03/22 10:52:06;;;;;;;32.60;14.07;;;10.50;99.90;;;;;;10426339;28;19947;-49
2024/03/22 10:57:13;;;;;;;38.60;16.55;;;10.60;99.90;;;;;;10426654;28;20051;-52
2024/03/22 11:02:18;;;;;;;46.53;15.98;;;10.70;99.90;;;;;;10431002;28;20159;-52
2024/03/22 11:07:21;;;;;;;37.97;13.32;;;10.90;99.90;;;;;;10427761;28;21220;-48
2024/03/22 11:12:25;;;;;;;;;;;10.90;99.90;;;;;;10426940;28;20083;-49
2024/03/22 11:17:28;;;;;;;38.65;15.23;;;11.30;99.90;;;;;;10433192;28;19929;-48
2024/03/22 11:22:30;;;;;;;31.85;11.88;;;11.10;99.90;;;;;;10430712;28;20194;-49
2024/03/22 11:27:32;;;;;;;30.63;12.80;;;11.40;99.90;;;;;;10429713;28;20383;-49
2024/03/22 11:32:42;;;;;;;26.08;14.05;;;11.20;99.90;;;;;;10430525;28;20052;-49
2024/03/22 11:37:44;;;;;;;35.67;12.55;;;11.10;99.90;;;;;;10427129;28;20059;-52
2024/03/22 11:42:49;;;;;;;33.13;13.37;;;11.00;99.90;;;;;;10426246;28;20052;-47
2024/03/22 11:47:53;;;;;;;0.10;0.10;;;10.80;99.90;;;;;;10423178;28;20048;-49
2024/03/22 11:52:57;;;;;;;7.13;1.48;;;10.90;99.90;;;;;;10428447;28;20049;-50
2024/03/22 11:57:59;;;;;;;0.10;0.10;;;10.90;99.90;;;;;;10421067;28;20052;-47
2024/03/22 12:03:05;;;;;;;0.23;0.23;;;10.90;99.90;;;;;;10422989;28;20867;-47
2024/03/22 12:08:07;;;;;;;0.10;0.10;;;10.70;99.90;;;;;;10427585;28;20869;-48
2024/03/22 12:13:09;;;;;;;0.17;0.17;;;11.10;99.90;;;;;;10426678;28;20154;-49
2024/03/22 12:18:13;;;;;;;0.10;0.10;;;11.50;99.90;;;;;;10427525;28;20425;-51
2024/03/22 12:23:15;;;;;;;0.45;0.45;;;11.30;99.90;;;;;;10436109;28;20373;-47
2024/03/22 12:28:17;;;;;;;0.40;0.40;;;11.10;99.90;;;;;;10433492;28;20127;-49
2024/03/22 12:33:20;;;;;;;0.10;0.10;;;11.00;99.90;;;;;;10432854;28;20059;-51
2024/03/22 12:38:22;;;;;;;0.47;0.45;;;11.10;99.90;;;;;;10431539;28;20060;-50
2024/03/22 12:43:24;;;;;;;0.13;0.13;;;10.80;99.90;;;;;;10426116;28;20052;-49
2024/03/22 12:48:27;;;;;;;0.10;0.10;;;11.00;99.90;;;;;;10427990;28;20068;-49
2024/03/22 12:53:30;;;;;;;1.85;1.27;;;11.40;99.90;;;;;;10430375;28;20044;-50
2024/03/22 12:58:32;;;;;;;0.00;0.00;;;11.60;99.90;;;;;;10426345;28;20052;-49
2024/03/22 13:03:37;;;;;;;0.20;0.20;;;11.20;99.90;;;;;;10423196;28;20083;-51
2024/03/22 13:08:39;;;;;;;1.33;0.73;;;11.50;99.90;;;;;;10419667;28;20057;-48
2024/03/22 13:13:41;;;;;;;0.10;0.10;;;11.70;99.90;;;;;;10424497;28;20056;-49
2024/03/22 13:18:46;;;;;;;0.93;0.85;;;11.50;99.90;;;;;;10421777;28;20404;-54
2024/03/22 13:23:48;;;;;;;0.65;0.65;;;11.90;99.90;;;;;;10427456;28;20053;-51
2024/03/22 13:28:50;;;;;;;0.47;0.47;;;11.60;99.90;;;;;;10424487;28;20067;-49
2024/03/22 13:33:54;;;;;;;;;;;11.90;99.90;;;;;;10431150;28;20066;-53
2024/03/22 13:38:56;;;;;;;0.10;0.10;;;11.80;99.90;;;;;;10425716;28;19924;-48
2024/03/22 13:43:59;;;;;;;0.20;0.20;;;11.40;99.90;;;;;;10419984;28;20045;-49
2024/03/22 13:49:02;;;;;;;0.30;0.30;;;11.60;99.90;;;;;;10428216;28;20136;-52
2024/03/22 13:54:04;;;;;;;0.10;0.10;;;11.30;99.90;;;;;;10428457;28;20053;-49
2024/03/22 13:59:08;;;;;;;0.20;0.20;;;11.30;99.90;;;;;;10432181;28;20207;-53
2024/03/22 14:04:13;;;;;;;0.10;0.10;;;11.90;99.90;;;;;;10423682;28;20069;-48
2024/03/22 14:09:16;;;;;;;0.20;0.20;;;11.60;99.90;;;;;;10430926;28;20119;-52
2024/03/22 14:14:17;;;;;;;1.30;0.70;;;11.80;99.90;;;;;;10427503;28;20506;-48
2024/03/22 14:19:21;;;;;;;0.30;0.30;;;11.60;99.90;;;;;;10432079;28;20163;-49
2024/03/22 14:24:23;;;;;;;0.38;0.38;;;11.80;99.90;;;;;;10428065;28;21356;-48
2024/03/22 14:29:25;;;;;;;0.83;0.40;;;11.90;99.90;;;;;;10432952;28;20060;-52
2024/03/22 14:34:29;;;;;;;0.17;0.17;;;11.80;99.90;;;;;;10434640;28;20088;-50
2024/03/22 14:39:31;;;;;;;0.10;0.10;;;11.90;99.90;;;;;;10435148;28;20739;-52
2024/03/22 14:44:33;;;;;;;0.10;0.10;;;12.20;99.90;;;;;;10428132;28;20131;-49
2024/03/22 14:49:37;;;;;;;0.13;0.13;;;12.20;99.90;;;;;;10428721;28;20122;-53
2024/03/22 14:54:39;;;;;;;0.30;0.30;;;12.00;99.90;;;;;;10434524;28;20506;-52
2024/03/22 14:59:41;;;;;;;1.08;0.93;;;12.20;99.90;;;;;;10432772;28;20049;-48
2024/03/22 15:04:44;;;;;;;0.10;0.10;;;11.90;99.90;;;;;;10431293;28;20112;-49
2024/03/22 15:09:46;;;;;;;0.10;0.10;;;12.60;99.90;;;;;;10428129;28;20764;-52
2024/03/22 15:14:52;;;;;;;0.10;0.10;;;13.90;99.90;;;;;;10428311;28;20052;-52
2024/03/22 15:19:56;;;;;;;0.10;0.10;;;14.00;99.90;;;;;;10428379;28;20056;-54
2024/03/22 15:24:59;;;;;;;0.10;0.10;;;15.60;99.90;;;;;;10433498;28;20087;-53
2024/03/22 15:30:01;;;;;;;0.35;0.35;;;15.60;99.90;;;;;;10429030;28;20056;-51
2024/03/22 15:35:05;;;;;;;0.00;0.00;;;15.50;99.90;;;;;;10427819;28;20095;-54
2024/03/22 15:40:09;;;;;;;0.50;0.50;;;15.70;99.90;;;;;;10428578;28;20048;-53
2024/03/22 15:45:11;;;;;;;0.03;0.03;;;16.40;99.90;;;;;;10427727;28;20044;-54
2024/03/22 15:50:14;;;;;;;0.03;0.03;;;16.90;99.90;;;;;;10418156;28;20084;-53
2024/03/22 15:55:16;;;;;;;0.10;0.10;;;17.30;99.90;;;;;;10415746;28;20096;-52
2024/03/22 16:00:18;;;;;;;0.08;0.08;;;17.30;99.90;;;;;;10420330;28;20072;-52
2024/03/22 16:05:22;;;;;;;0.00;0.00;;;17.50;99.90;;;;;;10419994;28;20072;-51
2024/03/22 16:10:23;;;;;;;0.00;0.00;;;17.20;99.90;;;;;;10421456;28;20057;-53
2024/03/22 16:15:25;;;;;;;0.00;0.00;;;17.50;99.90;;;;;;10418300;28;20087;-54
2024/03/22 16:20:29;;;;;;;0.00;0.00;;;17.40;99.90;;;;;;10415257;28;20892;-51
2024/03/22 16:25:31;;;;;;;0.10;0.10;;;17.00;99.90;;;;;;10422534;28;20117;-52
2024/03/22 16:30:33;;;;;;;0.00;0.00;;;17.10;99.90;;;;;;10417924;28;20037;-50
2024/03/22 16:35:36;;;;;;;1.00;0.90;;;17.20;99.90;;;;;;10416391;28;21116;-50
2024/03/22 16:40:38;;;;;;;0.30;0.30;;;16.30;99.90;;;;;;10418340;28;20527;-53
2024/03/22 16:45:40;;;;;;;0.10;0.10;;;17.40;99.90;;;;;;10418491;28;20066;-50
2024/03/22 16:50:46;;;;;;;0.00;0.00;;;17.50;99.90;;;;;;10418902;28;21820;-52
2024/03/22 16:55:48;;;;;;;0.10;0.10;;;18.10;99.90;;;;;;10423514;28;20889;-50
2024/03/22 17:00:50;;;;;;;0.10;0.10;;;17.90;99.90;;;;;;10424213;28;20068;-53
2024/03/22 17:05:53;;;;;;;0.20;0.20;;;17.80;99.90;;;;;;10432244;28;20117;-54
2024/03/22 17:10:56;;;;;;;0.00;0.00;;;17.50;99.90;;;;;;10424569;28;20053;-54
2024/03/22 17:15:59;;;;;;;0.03;0.03;;;17.50;99.90;;;;;;10427169;28;20837;-53
2024/03/22 17:21:02;;;;;;;0.00;0.00;;;17.60;99.90;;;;;;10415239;28;20057;-52
2024/03/22 17:26:05;;;;;;;2.75;1.38;;;15.30;99.90;;;;;;10417831;28;20522;-53
2024/03/22 17:31:07;;;;;;;;;;;14.90;99.90;;;;;;10418443;28;20059;-52
2024/03/22 17:36:10;;;;;;;0.55;0.55;;;15.00;99.90;;;;;;10417015;28;19924;-52
2024/03/22 17:41:14;;;;;;;0.25;0.25;;;14.60;99.90;;;;;;10422319;28;20161;-51
2024/03/22 17:46:16;;;;;;;0.10;0.10;;;14.60;99.90;;;;;;10426941;28;20894;-53
2024/03/22 17:51:21;;;;;;;0.10;0.10;;;15.10;99.90;;;;;;10426197;28;20080;-54
2024/03/22 17:56:23;;;;;;;0.40;0.40;;;15.00;99.90;;;;;;10430592;28;20053;-50
2024/03/22 18:01:25;;;;;;;1.45;1.10;;;14.70;99.90;;;;;;10430664;28;20059;-54
2024/03/22 18:06:29;;;;;;;0.20;0.20;;;16.10;99.90;;;;;;10429462;28;20049;-51
2024/03/22 18:11:32;;;;;;;0.00;0.00;;;16.90;99.90;;;;;;10434843;28;20738;-51
2024/03/22 18:16:35;;;;;;;0.10;0.10;;;17.20;99.90;;;;;;10436500;28;20221;-52
2024/03/22 18:21:41;;;;;;;0.10;0.10;;;16.60;99.90;;;;;;10433920;28;20548;-54
2024/03/22 18:26:43;;;;;;;0.30;0.30;;;14.80;99.90;;;;;;10434410;28;20744;-49
2024/03/22 18:31:45;;;;;;;7.50;1.03;;;14.40;99.90;;;;;;10429413;28;20049;-51
2024/03/22 18:36:49;;;;;;;0.87;0.87;;;14.40;99.90;;;;;;10433834;28;20313;-51
2024/03/22 18:41:52;;;;;;;0.30;0.30;;;13.70;99.90;;;;;;10427734;28;20906;-56
2024/03/22 18:46:54;;;;;;;0.50;0.50;;;14.30;99.90;;;;;;10431599;28;20114;-52
2024/03/22 18:51:57;;;;;;;0.80;0.77;;;13.90;99.90;;;;;;10433797;28;20060;-54
2024/03/22 18:57:00;;;;;;;15.65;3.38;;;13.60;99.90;;;;;;10427616;28;20045;-53
2024/03/22 19:02:02;;;;;;;1.40;1.38;;;14.10;99.90;;;;;;10432028;28;20049;-53
2024/03/22 19:07:06;;;;;;;3.50;2.95;;;14.50;99.90;;;;;;10426829;28;20056;-55
2024/03/22 19:12:08;;;;;;;1.13;1.13;;;14.50;99.90;;;;;;10427820;28;20052;-53
2024/03/22 19:17:10;;;;;;;;;;;14.30;99.90;;;;;;10429832;28;20041;-53
2024/03/22 19:22:17;;;;;;;1.23;1.13;;;16.20;99.90;;;;;;10431106;28;19951;-55
2024/03/22 19:27:19;;;;;;;1.00;0.70;;;17.00;99.90;;;;;;10426309;28;20064;-55
2024/03/22 19:32:23;;;;;;;0.10;0.10;;;17.20;99.90;;;;;;10422866;28;20140;-51
2024/03/22 19:37:26;;;;;;;2.05;1.10;;;17.40;99.90;;;;;;10430498;28;20143;-54
2024/03/22 19:42:28;;;;;;;0.20;0.20;;;17.40;99.90;;;;;;10422825;28;20759;-55
2024/03/22 19:47:31;;;;;;;0.05;0.05;;;17.50;99.90;;;;;;10421412;28;20067;-55
2024/03/22 19:52:38;;;;;;;0.00;0.00;;;17.50;99.90;;;;;;10425603;28;20048;-53
2024/03/22 19:57:40;;;;;;;0.10;0.10;;;17.50;99.90;;;;;;10423244;28;20068;-52
2024/03/22 20:02:42;;;;;;;0.80;0.80;;;17.50;99.90;;;;;;10418246;28;20052;-53
2024/03/22 20:07:45;;;;;;;0.00;0.00;;;17.50;99.90;;;;;;10423684;28;20041;-56
2024/03/22 20:12:48;;;;;;;0.63;0.63;;;17.50;99.90;;;;;;10423958;28;20056;-54
2024/03/22 20:17:54;;;;;;;1.17;1.08;;;17.50;99.90;;;;;;10429116;28;20279;-52
2024/03/22 20:22:57;;;;;;;0.05;0.05;;;17.50;99.90;;;;;;10432598;28;20060;-55
2024/03/22 20:28:03;;;;;;;0.80;0.80;;;17.50;99.90;;;;;;10437769;28;20683;-55
2024/03/22 20:33:06;;;;;;;0.40;0.40;;;17.40;99.90;;;;;;10426639;28;20052;-50
2024/03/22 20:38:11;;;;;;;0.15;0.15;;;17.40;99.90;;;;;;10426668;28;20052;-54
2024/03/22 20:43:17;;;;;;;6.93;1.48;;;17.40;99.90;;;;;;10427711;28;20053;-51
2024/03/22 20:48:23;;;;;;;1.63;1.52;;;17.40;99.90;;;;;;10424183;28;22568;-56
2024/03/22 20:53:30;;;;;;;1.35;1.27;;;17.50;99.90;;;;;;10429545;28;20428;-54
2024/03/22 20:58:35;;;;;;;0.50;0.50;;;17.40;99.90;;;;;;10428595;28;20478;-51
2024/03/22 21:03:41;;;;;;;0.32;0.32;;;17.40;99.90;;;;;;10424206;28;20429;-50
2024/03/22 21:08:50;;;;;;;0.20;0.20;;;17.40;99.90;;;;;;10426676;28;20056;-52
2024/03/22 21:13:56;;;;;;;0.52;0.52;;;17.30;99.90;;;;;;10419599;28;20519;-55
2024/03/22 21:19:01;;;;;;;0.52;0.52;;;17.20;99.90;;;;;;10419600;28;20792;-55
2024/03/22 21:24:07;;;;;;;3.08;1.67;;;17.30;99.90;;;;;;10422454;28;20060;-50
2024/03/22 21:29:13;;;;;;;0.88;0.88;;;17.40;99.90;;;;;;10432062;28;20061;-55
2024/03/22 21:34:19;;;;;;;0.45;0.45;;;17.20;99.90;;;;;;10418819;28;20076;-53
2024/03/22 21:39:24;;;;;;;2.05;0.85;;;17.10;99.90;;;;;;10425862;28;20091;-52
2024/03/22 21:44:31;;;;;;;0.43;0.43;;;17.20;99.90;;;;;;10423697;28;20693;-50
2024/03/22 21:49:36;;;;;;;0.55;0.55;;;17.00;99.90;;;;;;10423194;28;20182;-50
2024/03/22 21:54:42;;;;;;;2.13;1.25;;;16.90;99.90;;;;;;10421665;28;20226;-56
2024/03/22 21:59:48;;;;;;;0.82;0.82;;;17.00;99.90;;;;;;10424026;28;20100;-53
2024/03/22 22:04:54;;;;;;;0.55;0.55;;;16.90;99.90;;;;;;10424845;28;20068;-54
2024/03/22 22:10:00;;;;;;;0.40;0.40;;;16.90;99.90;;;;;;10431745;28;20053;-50
2024/03/22 22:15:05;;;;;;;0.38;0.38;;;16.90;99.90;;;;;;10426891;28;20056;-55
2024/03/22 22:20:12;;;;;;;0.45;0.45;;;16.80;99.90;;;;;;10429078;28;20060;-54
2024/03/22 22:25:18;;;;;;;0.75;0.75;;;16.80;99.90;;;;;;10426021;28;20049;-55
2024/03/22 22:30:24;;;;;;;2.38;2.13;;;16.80;99.90;;;;;;10436840;28;20052;-50
2024/03/22 22:35:30;;;;;;;0.20;0.20;;;16.60;99.90;;;;;;10433248;28;20052;-50
2024/03/22 22:40:36;;;;;;;0.52;0.52;;;15.90;99.90;;;;;;10435629;28;20395;-54
2024/03/22 22:45:42;;;;;;;0.20;0.20;;;16.10;99.90;;;;;;10434376;28;20091;-52
2024/03/22 22:50:47;;;;;;;2.47;2.28;;;16.40;99.90;;;;;;10429491;28;20508;-55
2024/03/22 22:55:53;;;;;;;0.22;0.22;;;16.60;99.90;;;;;;10419369;28;20063;-50
2024/03/22 23:00:59;;;;;;;3.50;1.20;;;16.60;99.90;;;;;;10431159;28;20143;-52
2024/03/22 23:06:05;;;;;;;1.80;1.70;;;16.60;99.90;;;;;;10435809;28;20045;-50
2024/03/22 23:11:11;;;;;;;5.13;1.80;;;16.50;99.90;;;;;;10434681;28;20167;-55
2024/03/22 23:16:17;;;;;;;4.78;2.78;;;16.40;99.90;;;;;;10435331;28;20357;-49
2024/03/22 23:21:22;;;;;;;0.95;0.75;;;16.40;99.90;;;;;;10438558;28;20048;-50
2024/03/22 23:26:28;;;;;;;0.40;0.40;;;16.50;99.90;;;;;;10436934;28;20052;-50
2024/03/22 23:31:34;;;;;;;1.05;1.05;;;16.40;99.90;;;;;;10439292;28;20049;-52
2024/03/22 23:36:40;;;;;;;0.75;0.75;;;16.30;99.90;;;;;;10435923;28;20700;-50
2024/03/22 23:41:46;;;;;;;1.60;1.50;;;16.20;99.90;;;;;;10432093;28;20040;-52
2024/03/22 23:46:51;;;;;;;0.45;0.45;;;16.20;99.90;;;;;;10427734;28;20076;-51
2024/03/22 23:51:57;;;;;;;0.30;0.30;;;16.00;99.90;;;;;;10434102;28;20099;-51
2024/03/22 23:57:03;;;;;;;0.25;0.25;;;15.90;99.90;;;;;;10424150;28;20037;-52
